sensor_id;sensor_type;location;lat;lon;timestamp;P1;durP1;ratioP1;P2;durP2;ratioP2
53285;SDS011;39171;45.550;12.074;2022-10-31T00:02:04;14.38;;;12.88;;
53285;SDS011;39171;45.550;12.074;2022-10-31T00:08:06;12.52;;;11.07;;
53285;SDS011;39171;45.550;12.074;2022-10-31T00:14:07;12.43;;;10.57;;
53285;SDS011;39171;45.550;12.074;2022-10-31T00:20:09;12.57;;;10.93;;
53285;SDS011;39171;45.550;12.074;2022-10-31T00:26:10;13.00;;;11.00;;
53285;SDS011;39171;45.550;12.074;2022-10-31T00:32:12;11.75;;;10.50;;
53285;SDS011;39171;45.550;12.074;2022-10-31T00:38:13;14.50;;;11.52;;
53285;SDS011;39171;45.550;12.074;2022-10-31T00:44:14;11.98;;;10.10;;
53285;SDS011;39171;45.550;12.074;2022-10-31T00:50:16;10.77;;;9.38;;
53285;SDS011;39171;45.550;12.074;2022-10-31T00:56:17;11.43;;;9.93;;
53285;SDS011;39171;45.550;12.074;2022-10-31T01:02:19;11.40;;;9.15;;
53285;SDS011;39171;45.550;12.074;2022-10-31T01:08:20;11.13;;;8.93;;
53285;SDS011;39171;45.550;12.074;2022-10-31T01:14:22;10.27;;;9.00;;
53285;SDS011;39171;45.550;12.074;2022-10-31T01:20:24;9.48;;;8.18;;
53285;SDS011;39171;45.550;12.074;2022-10-31T01:26:26;11.70;;;8.90;;
53285;SDS011;39171;45.550;12.074;2022-10-31T01:32:29;10.95;;;8.93;;
53285;SDS011;39171;45.550;12.074;2022-10-31T01:38:32;11.30;;;9.52;;
53285;SDS011;39171;45.550;12.074;2022-10-31T01:50:35;9.52;;;8.48;;
53285;SDS011;39171;45.550;12.074;2022-10-31T01:56:39;9.70;;;8.68;;
53285;SDS011;39171;45.550;12.074;2022-10-31T02:02:43;10.25;;;8.82;;
53285;SDS011;39171;45.550;12.074;2022-10-31T02:08:47;10.82;;;8.70;;
53285;SDS011;39171;45.550;12.074;2022-10-31T02:14:48;9.60;;;8.23;;
53285;SDS011;39171;45.550;12.074;2022-10-31T02:52:02;10.27;;;7.22;;
53285;SDS011;39171;45.550;12.074;2022-10-31T02:58:14;9.93;;;8.00;;
53285;SDS011;39171;45.550;12.074;2022-10-31T03:04:32;8.90;;;7.15;;
53285;SDS011;39171;45.550;12.074;2022-10-31T03:10:49;8.18;;;7.28;;
53285;SDS011;39171;45.550;12.074;2022-10-31T03:17:05;8.75;;;7.60;;
53285;SDS011;39171;45.550;12.074;2022-10-31T03:23:10;9.65;;;7.63;;
53285;SDS011;39171;45.550;12.074;2022-10-31T03:29:16;9.23;;;7.47;;
53285;SDS011;39171;45.550;12.074;2022-10-31T03:35:23;10.48;;;7.93;;
53285;SDS011;39171;45.550;12.074;2022-10-31T03:41:28;9.02;;;7.32;;
53285;SDS011;39171;45.550;12.074;2022-10-31T03:47:35;8.70;;;7.80;;
53285;SDS011;39171;45.550;12.074;2022-10-31T03:53:39;9.10;;;7.57;;
53285;SDS011;39171;45.550;12.074;2022-10-31T03:59:51;8.32;;;7.05;;
53285;SDS011;39171;45.550;12.074;2022-10-31T04:06:00;8.68;;;6.82;;
53285;SDS011;39171;45.550;12.074;2022-10-31T04:12:06;8.18;;;6.78;;
53285;SDS011;39171;45.550;12.074;2022-10-31T04:18:15;9.02;;;7.40;;
53285;SDS011;39171;45.550;12.074;2022-10-31T04:24:16;7.45;;;6.68;;
53285;SDS011;39171;45.550;12.074;2022-10-31T04:30:18;7.97;;;7.13;;
53285;SDS011;39171;45.550;12.074;2022-10-31T04:36:39;9.23;;;7.70;;
53285;SDS011;39171;45.550;12.074;2022-10-31T04:42:42;9.13;;;7.47;;
53285;SDS011;39171;45.550;12.074;2022-10-31T04:48:44;8.85;;;7.15;;
53285;SDS011;39171;45.550;12.074;2022-10-31T04:54:46;8.70;;;7.10;;
53285;SDS011;39171;45.550;12.074;2022-10-31T05:01:06;8.30;;;7.30;;
53285;SDS011;39171;45.550;12.074;2022-10-31T05:07:08;9.38;;;7.97;;
53285;SDS011;39171;45.550;12.074;2022-10-31T05:13:10;7.65;;;6.57;;
53285;SDS011;39171;45.550;12.074;2022-10-31T05:19:30;8.88;;;7.60;;
53285;SDS011;39171;45.550;12.074;2022-10-31T05:25:37;8.05;;;7.25;;
53285;SDS011;39171;45.550;12.074;2022-10-31T05:31:40;8.77;;;6.90;;
53285;SDS011;39171;45.550;12.074;2022-10-31T05:37:49;9.32;;;7.32;;
53285;SDS011;39171;45.550;12.074;2022-10-31T05:43:51;8.18;;;6.60;;
53285;SDS011;39171;45.550;12.074;2022-10-31T05:49:58;8.88;;;7.20;;
53285;SDS011;39171;45.550;12.074;2022-10-31T05:56:20;7.65;;;6.63;;
53285;SDS011;39171;45.550;12.074;2022-10-31T06:02:24;9.13;;;7.13;;
53285;SDS011;39171;45.550;12.074;2022-10-31T06:08:53;8.98;;;6.57;;
53285;SDS011;39171;45.550;12.074;2022-10-31T06:14:57;8.88;;;7.50;;
53285;SDS011;39171;45.550;12.074;2022-10-31T06:20:58;8.55;;;6.95;;
53285;SDS011;39171;45.550;12.074;2022-10-31T06:27:00;10.13;;;7.25;;
53285;SDS011;39171;45.550;12.074;2022-10-31T06:33:02;9.30;;;7.15;;
53285;SDS011;39171;45.550;12.074;2022-10-31T06:39:04;7.88;;;6.70;;
53285;SDS011;39171;45.550;12.074;2022-10-31T06:45:09;9.23;;;7.07;;
53285;SDS011;39171;45.550;12.074;2022-10-31T06:51:42;10.18;;;8.38;;
53285;SDS011;39171;45.550;12.074;2022-10-31T06:57:48;8.40;;;7.47;;
53285;SDS011;39171;45.550;12.074;2022-10-31T07:03:51;8.57;;;7.15;;
53285;SDS011;39171;45.550;12.074;2022-10-31T07:09:53;8.60;;;7.00;;
53285;SDS011;39171;45.550;12.074;2022-10-31T07:16:08;8.80;;;6.90;;
53285;SDS011;39171;45.550;12.074;2022-10-31T07:22:15;7.90;;;6.32;;
53285;SDS011;39171;45.550;12.074;2022-10-31T07:28:18;8.02;;;6.55;;
53285;SDS011;39171;45.550;12.074;2022-10-31T07:34:24;7.65;;;6.40;;
53285;SDS011;39171;45.550;12.074;2022-10-31T07:40:48;8.35;;;7.35;;
53285;SDS011;39171;45.550;12.074;2022-10-31T07:46:52;8.48;;;6.90;;
53285;SDS011;39171;45.550;12.074;2022-10-31T07:53:04;8.50;;;7.15;;
53285;SDS011;39171;45.550;12.074;2022-10-31T07:59:23;8.00;;;7.20;;
53285;SDS011;39171;45.550;12.074;2022-10-31T08:05:26;7.45;;;6.50;;
53285;SDS011;39171;45.550;12.074;2022-10-31T08:11:54;8.10;;;6.30;;
53285;SDS011;39171;45.550;12.074;2022-10-31T08:17:57;7.28;;;6.03;;
53285;SDS011;39171;45.550;12.074;2022-10-31T08:23:59;6.55;;;5.50;;
53285;SDS011;39171;45.550;12.074;2022-10-31T08:30:02;6.47;;;5.15;;
53285;SDS011;39171;45.550;12.074;2022-10-31T08:36:04;6.10;;;4.70;;
53285;SDS011;39171;45.550;12.074;2022-10-31T08:42:26;5.45;;;4.40;;
53285;SDS011;39171;45.550;12.074;2022-10-31T08:48:27;4.25;;;3.75;;
53285;SDS011;39171;45.550;12.074;2022-10-31T08:54:31;3.95;;;3.47;;
53285;SDS011;39171;45.550;12.074;2022-10-31T09:00:43;3.92;;;3.13;;
53285;SDS011;39171;45.550;12.074;2022-10-31T09:06:49;3.00;;;2.50;;
53285;SDS011;39171;45.550;12.074;2022-10-31T09:12:57;2.90;;;2.47;;
53285;SDS011;39171;45.550;12.074;2022-10-31T09:19:25;2.70;;;2.20;;
53285;SDS011;39171;45.550;12.074;2022-10-31T09:25:26;2.50;;;2.10;;
53285;SDS011;39171;45.550;12.074;2022-10-31T09:31:48;2.15;;;1.83;;
53285;SDS011;39171;45.550;12.074;2022-10-31T09:38:03;3.42;;;2.97;;
53285;SDS011;39171;45.550;12.074;2022-10-31T09:44:26;4.25;;;3.33;;
53285;SDS011;39171;45.550;12.074;2022-10-31T09:51:05;3.22;;;2.42;;
53285;SDS011;39171;45.550;12.074;2022-10-31T09:57:14;2.92;;;2.58;;
53285;SDS011;39171;45.550;12.074;2022-10-31T10:09:50;4.82;;;3.80;;
53285;SDS011;39171;45.550;12.074;2022-10-31T10:16:19;2.05;;;1.55;;
53285;SDS011;39171;45.550;12.074;2022-10-31T10:28:41;2.95;;;2.50;;
53285;SDS011;39171;45.550;12.074;2022-10-31T10:34:48;5.97;;;4.78;;
53285;SDS011;39171;45.550;12.074;2022-10-31T10:40:53;6.55;;;5.07;;
53285;SDS011;39171;45.550;12.074;2022-10-31T10:46:55;9.77;;;6.50;;
53285;SDS011;39171;45.550;12.074;2022-10-31T10:53:33;5.40;;;4.53;;
53285;SDS011;39171;45.550;12.074;2022-10-31T10:59:50;9.38;;;6.00;;
53285;SDS011;39171;45.550;12.074;2022-10-31T11:05:53;7.88;;;5.75;;
53285;SDS011;39171;45.550;12.074;2022-10-31T11:11:57;8.35;;;5.65;;
53285;SDS011;39171;45.550;12.074;2022-10-31T11:17:59;9.05;;;6.60;;
53285;SDS011;39171;45.550;12.074;2022-10-31T11:30:12;11.27;;;6.93;;
53285;SDS011;39171;45.550;12.074;2022-10-31T11:36:18;14.30;;;8.85;;
53285;SDS011;39171;45.550;12.074;2022-10-31T11:42:27;10.32;;;7.97;;
53285;SDS011;39171;45.550;12.074;2022-10-31T11:48:31;8.35;;;6.70;;
53285;SDS011;39171;45.550;12.074;2022-10-31T11:54:33;8.90;;;6.03;;
53285;SDS011;39171;45.550;12.074;2022-10-31T12:00:56;9.80;;;6.28;;
53285;SDS011;39171;45.550;12.074;2022-10-31T12:06:58;9.63;;;6.88;;
53285;SDS011;39171;45.550;12.074;2022-10-31T12:44:14;12.50;;;7.00;;
53285;SDS011;39171;45.550;12.074;2022-10-31T13:08:38;8.95;;;6.82;;
53285;SDS011;39171;45.550;12.074;2022-10-31T13:14:46;11.85;;;7.28;;
53285;SDS011;39171;45.550;12.074;2022-10-31T13:20:55;12.20;;;7.43;;
53285;SDS011;39171;45.550;12.074;2022-10-31T13:27:00;13.13;;;7.75;;
53285;SDS011;39171;45.550;12.074;2022-10-31T13:45:49;9.15;;;6.22;;
53285;SDS011;39171;45.550;12.074;2022-10-31T13:52:12;7.72;;;5.20;;
53285;SDS011;39171;45.550;12.074;2022-10-31T13:58:27;8.52;;;5.47;;
53285;SDS011;39171;45.550;12.074;2022-10-31T14:10:45;8.63;;;5.68;;
53285;SDS011;39171;45.550;12.074;2022-10-31T14:16:53;8.15;;;5.50;;
53285;SDS011;39171;45.550;12.074;2022-10-31T14:22:57;7.90;;;5.68;;
53285;SDS011;39171;45.550;12.074;2022-10-31T14:35:24;8.27;;;5.38;;
53285;SDS011;39171;45.550;12.074;2022-10-31T14:54:21;8.68;;;5.68;;
53285;SDS011;39171;45.550;12.074;2022-10-31T15:00:35;10.35;;;6.00;;
53285;SDS011;39171;45.550;12.074;2022-10-31T15:06:44;8.88;;;4.78;;
53285;SDS011;39171;45.550;12.074;2022-10-31T15:12:48;6.88;;;5.07;;
53285;SDS011;39171;45.550;12.074;2022-10-31T15:24:56;8.25;;;4.90;;
53285;SDS011;39171;45.550;12.074;2022-10-31T15:30:59;7.20;;;4.75;;
53285;SDS011;39171;45.550;12.074;2022-10-31T15:37:03;7.15;;;4.53;;
53285;SDS011;39171;45.550;12.074;2022-10-31T15:43:05;8.77;;;4.60;;
53285;SDS011;39171;45.550;12.074;2022-10-31T15:49:26;6.05;;;4.05;;
53285;SDS011;39171;45.550;12.074;2022-10-31T15:55:33;5.68;;;3.70;;
53285;SDS011;39171;45.550;12.074;2022-10-31T16:01:58;5.97;;;3.92;;
53285;SDS011;39171;45.550;12.074;2022-10-31T16:08:01;5.28;;;3.75;;
53285;SDS011;39171;45.550;12.074;2022-10-31T16:20:25;6.90;;;4.43;;
53285;SDS011;39171;45.550;12.074;2022-10-31T16:26:29;4.90;;;3.97;;
53285;SDS011;39171;45.550;12.074;2022-10-31T16:32:35;5.13;;;4.38;;
53285;SDS011;39171;45.550;12.074;2022-10-31T16:38:56;5.75;;;4.25;;
53285;SDS011;39171;45.550;12.074;2022-10-31T16:45:00;5.85;;;4.75;;
53285;SDS011;39171;45.550;12.074;2022-10-31T16:51:02;6.40;;;5.18;;
53285;SDS011;39171;45.550;12.074;2022-10-31T16:57:03;4.57;;;3.28;;
53285;SDS011;39171;45.550;12.074;2022-10-31T17:03:07;3.08;;;2.42;;
53285;SDS011;39171;45.550;12.074;2022-10-31T17:09:09;3.38;;;2.33;;
53285;SDS011;39171;45.550;12.074;2022-10-31T17:15:15;2.80;;;2.22;;
53285;SDS011;39171;45.550;12.074;2022-10-31T17:21:28;2.35;;;1.90;;
53285;SDS011;39171;45.550;12.074;2022-10-31T17:27:30;2.97;;;2.00;;
53285;SDS011;39171;45.550;12.074;2022-10-31T17:33:31;3.35;;;2.03;;
53285;SDS011;39171;45.550;12.074;2022-10-31T17:39:33;2.70;;;1.83;;
53285;SDS011;39171;45.550;12.074;2022-10-31T17:45:34;3.15;;;2.20;;
53285;SDS011;39171;45.550;12.074;2022-10-31T17:51:38;4.03;;;2.47;;
53285;SDS011;39171;45.550;12.074;2022-10-31T17:57:39;3.22;;;2.55;;
53285;SDS011;39171;45.550;12.074;2022-10-31T18:03:41;3.70;;;2.90;;
53285;SDS011;39171;45.550;12.074;2022-10-31T18:09:43;5.13;;;3.88;;
53285;SDS011;39171;45.550;12.074;2022-10-31T18:15:46;6.03;;;4.00;;
53285;SDS011;39171;45.550;12.074;2022-10-31T18:21:47;7.45;;;4.47;;
53285;SDS011;39171;45.550;12.074;2022-10-31T18:27:49;6.25;;;4.82;;
53285;SDS011;39171;45.550;12.074;2022-10-31T18:33:54;6.60;;;5.32;;
53285;SDS011;39171;45.550;12.074;2022-10-31T18:39:56;7.97;;;5.75;;
53285;SDS011;39171;45.550;12.074;2022-10-31T18:46:01;7.97;;;6.03;;
53285;SDS011;39171;45.550;12.074;2022-10-31T18:52:03;8.23;;;6.75;;
53285;SDS011;39171;45.550;12.074;2022-10-31T18:58:05;9.13;;;6.50;;
53285;SDS011;39171;45.550;12.074;2022-10-31T19:04:06;9.68;;;7.80;;
53285;SDS011;39171;45.550;12.074;2022-10-31T19:10:10;10.85;;;8.02;;
53285;SDS011;39171;45.550;12.074;2022-10-31T19:16:12;9.95;;;8.25;;
53285;SDS011;39171;45.550;12.074;2022-10-31T19:22:15;10.70;;;8.82;;
53285;SDS011;39171;45.550;12.074;2022-10-31T19:28:17;12.68;;;8.85;;
53285;SDS011;39171;45.550;12.074;2022-10-31T19:34:18;12.57;;;9.35;;
53285;SDS011;39171;45.550;12.074;2022-10-31T19:40:20;11.38;;;8.88;;
53285;SDS011;39171;45.550;12.074;2022-10-31T19:46:22;10.88;;;8.95;;
53285;SDS011;39171;45.550;12.074;2022-10-31T19:52:23;12.57;;;10.38;;
53285;SDS011;39171;45.550;12.074;2022-10-31T19:58:25;14.38;;;11.38;;
53285;SDS011;39171;45.550;12.074;2022-10-31T20:04:28;14.57;;;11.00;;
53285;SDS011;39171;45.550;12.074;2022-10-31T20:10:29;13.75;;;11.60;;
53285;SDS011;39171;45.550;12.074;2022-10-31T20:16:31;15.07;;;11.35;;
53285;SDS011;39171;45.550;12.074;2022-10-31T20:22:35;14.35;;;11.32;;
53285;SDS011;39171;45.550;12.074;2022-10-31T20:28:37;14.65;;;12.35;;
53285;SDS011;39171;45.550;12.074;2022-10-31T20:34:39;18.08;;;13.80;;
53285;SDS011;39171;45.550;12.074;2022-10-31T20:40:41;20.65;;;14.55;;
53285;SDS011;39171;45.550;12.074;2022-10-31T20:46:42;20.88;;;15.48;;
53285;SDS011;39171;45.550;12.074;2022-10-31T20:52:44;23.55;;;16.65;;
53285;SDS011;39171;45.550;12.074;2022-10-31T20:58:46;29.23;;;19.02;;
53285;SDS011;39171;45.550;12.074;2022-10-31T21:04:48;29.35;;;20.58;;
53285;SDS011;39171;45.550;12.074;2022-10-31T21:10:50;28.42;;;20.92;;
53285;SDS011;39171;45.550;12.074;2022-10-31T21:16:51;32.58;;;22.23;;
53285;SDS011;39171;45.550;12.074;2022-10-31T21:22:53;32.60;;;22.60;;
53285;SDS011;39171;45.550;12.074;2022-10-31T21:28:55;35.58;;;24.52;;
53285;SDS011;39171;45.550;12.074;2022-10-31T21:34:58;37.10;;;25.38;;
53285;SDS011;39171;45.550;12.074;2022-10-31T21:41:10;32.35;;;24.15;;
53285;SDS011;39171;45.550;12.074;2022-10-31T21:47:13;36.17;;;25.10;;
53285;SDS011;39171;45.550;12.074;2022-10-31T21:53:14;35.08;;;22.98;;
53285;SDS011;39171;45.550;12.074;2022-10-31T21:59:34;30.23;;;22.87;;
53285;SDS011;39171;45.550;12.074;2022-10-31T22:05:36;36.65;;;24.08;;
53285;SDS011;39171;45.550;12.074;2022-10-31T22:11:39;34.25;;;24.10;;
53285;SDS011;39171;45.550;12.074;2022-10-31T22:17:42;33.83;;;23.60;;
53285;SDS011;39171;45.550;12.074;2022-10-31T22:23:48;33.72;;;23.08;;
53285;SDS011;39171;45.550;12.074;2022-10-31T22:29:50;33.67;;;23.95;;
53285;SDS011;39171;45.550;12.074;2022-10-31T22:35:52;34.92;;;23.80;;
53285;SDS011;39171;45.550;12.074;2022-10-31T22:41:53;32.45;;;23.52;;
53285;SDS011;39171;45.550;12.074;2022-10-31T22:47:55;34.58;;;23.85;;
53285;SDS011;39171;45.550;12.074;2022-10-31T22:53:56;32.15;;;22.58;;
53285;SDS011;39171;45.550;12.074;2022-10-31T22:59:58;30.52;;;22.90;;
53285;SDS011;39171;45.550;12.074;2022-10-31T23:06:00;30.20;;;22.67;;
53285;SDS011;39171;45.550;12.074;2022-10-31T23:12:02;29.25;;;22.73;;
53285;SDS011;39171;45.550;12.074;2022-10-31T23:18:22;29.60;;;21.10;;
53285;SDS011;39171;45.550;12.074;2022-10-31T23:24:42;29.63;;;20.73;;
53285;SDS011;39171;45.550;12.074;2022-10-31T23:30:45;28.50;;;19.63;;
53285;SDS011;39171;45.550;12.074;2022-10-31T23:36:47;24.88;;;19.55;;
53285;SDS011;39171;45.550;12.074;2022-10-31T23:42:49;20.65;;;16.90;;
53285;SDS011;39171;45.550;12.074;2022-10-31T23:48:50;21.98;;;16.77;;
53285;SDS011;39171;45.550;12.074;2022-10-31T23:54:53;22.33;;;17.60;;
